Time;durP1;ratioP1;P1;durP2;ratioP2;P2;SDS_P1;SDS_P2;PMS_P1;PMS_P2;Temp;Humidity;BMP_temperature;BMP_pressure;BME280_temperature;BME280_humidity;BME280_pressure;Samples;Min_cycle;Max_cycle;Signal;HPM_P1;HPM_P2
2021/10/25 00:00:20;;;;;;;9.10;4.90;;;;;;;2.93;100.00;-19243.88;5054027;28;20559;-70
2021/10/25 00:02:46;;;;;;;10.97;4.80;;;;;;;2.96;100.00;-19244.41;5057225;28;20047;-70
2021/10/25 00:05:11;;;;;;;14.47;5.23;;;;;;;2.87;100.00;-19242.28;5056842;28;20136;-70
2021/10/25 00:07:37;;;;;;;13.17;5.50;;;;;;;2.87;100.00;-19242.16;5058545;28;20332;-70
2021/10/25 00:10:04;;;;;;;9.93;4.73;;;;;;;2.81;100.00;-19240.69;5052951;28;20600;-70
2021/10/25 00:12:30;;;;;;;10.77;5.23;;;;;;;2.81;100.00;-19240.69;5062302;28;20109;-70
2021/10/25 00:14:56;;;;;;;10.13;5.07;;;;;;;2.75;100.00;-19238.97;5052832;28;20639;-70
2021/10/25 00:17:21;;;;;;;8.87;4.23;;;;;;;2.73;100.00;-19238.56;5054949;28;20607;-70
2021/10/25 00:19:47;;;;;;;11.27;5.23;;;;;;;2.82;100.00;-19240.97;5050454;28;20028;-70
2021/10/25 00:22:13;;;;;;;11.67;4.53;;;;;;;2.94;100.00;-19244.13;5051083;28;20025;-70
2021/10/25 00:24:38;;;;;;;11.47;4.83;;;;;;;2.91;100.00;-19243.34;5049517;28;20277;-70
2021/10/25 00:27:04;;;;;;;12.73;5.63;;;;;;;2.79;100.00;-19240.16;5052282;28;20511;-70
2021/10/25 00:29:32;;;;;;;15.80;5.43;;;;;;;2.69;100.00;-19237.50;5052670;28;20040;-70
2021/10/25 00:31:58;;;;;;;16.80;5.70;;;;;;;3.13;100.00;-19248.91;5051143;28;20124;-70
2021/10/25 00:34:24;;;;;;;9.20;5.10;;;;;;;3.07;100.00;-19247.31;5049624;28;20267;-70
2021/10/25 00:36:52;;;;;;;12.13;5.37;;;;;;;3.03;100.00;-19246.41;5054972;28;20032;-70
2021/10/25 00:39:18;;;;;;;10.07;5.00;;;;;;;2.97;100.00;-19244.66;5054587;28;20630;-70
2021/10/25 00:41:44;;;;;;;10.10;5.00;;;;;;;2.96;100.00;-19244.41;5049387;28;20277;-70
2021/10/25 00:44:10;;;;;;;11.63;5.10;;;;;;;2.93;100.00;-19243.88;5053756;28;20556;-70
2021/10/25 00:46:36;;;;;;;8.57;4.80;;;;;;;2.83;100.00;-19241.22;5053279;28;20040;-70
2021/10/25 00:49:02;;;;;;;11.93;5.50;;;;;;;2.88;100.00;-19242.53;5056142;28;20476;-70
2021/10/25 00:51:27;;;;;;;9.90;5.37;;;;;;;2.78;100.00;-19239.88;5055807;28;20294;-70
2021/10/25 00:53:53;;;;;;;10.33;5.43;;;;;;;2.86;100.00;-19241.88;5059582;28;20176;-70
2021/10/25 00:56:19;;;;;;;11.23;5.43;;;;;;;2.85;100.00;-19241.75;5053272;28;20067;-70
2021/10/25 00:58:44;;;;;;;12.53;5.80;;;;;;;2.82;100.00;-19240.97;5056397;28;20295;-70
2021/10/25 01:01:10;;;;;;;11.87;4.93;;;;;;;2.87;100.00;-19242.28;5055477;28;20036;-69
2021/10/25 01:03:35;;;;;;;11.43;5.20;;;;;;;2.69;100.00;-19237.50;5068426;22;20525;-70
2021/10/25 01:06:02;;;;;;;11.00;5.40;;;;;;;2.61;100.00;-19235.38;5071890;28;20032;-70
2021/10/25 01:08:30;;;;;;;9.20;4.90;;;;;;;2.61;100.00;-19235.38;5077040;28;20150;-70
2021/10/25 01:10:58;;;;;;;15.47;5.30;;;;;;;2.65;100.00;-19236.44;5076925;28;20289;-70
2021/10/25 01:13:24;;;;;;;15.53;5.60;;;;;;;2.87;100.00;-19242.28;5076198;28;20281;-70
2021/10/25 01:15:49;;;;;;;14.17;6.07;;;;;;;3.15;100.00;-19249.44;5076952;28;20266;-70
2021/10/25 01:18:15;;;;;;;11.90;5.77;;;;;;;3.49;100.00;-19258.34;5075027;28;20611;-70
2021/10/25 01:20:41;;;;;;;11.17;5.53;;;;;;;3.64;100.00;-19262.31;5073622;28;20032;-70
2021/10/25 01:23:07;;;;;;;12.83;5.67;;;;;;;3.57;100.00;-19260.31;5074979;28;20046;-70
2021/10/25 01:25:34;;;;;;;18.37;5.40;;;;;;;3.73;100.00;-19264.56;5074682;28;20256;-70
2021/10/25 01:28:01;;;;;;;10.83;5.37;;;;;;;3.68;100.00;-19263.38;5076460;28;20440;-70
2021/10/25 01:30:27;;;;;;;10.53;5.27;;;;;;;3.64;100.00;-19262.19;5076277;28;20344;-70
2021/10/25 01:32:53;;;;;;;9.03;4.40;;;;;;;3.62;100.00;-19261.66;5075337;28;20278;-70
2021/10/25 01:35:19;;;;;;;10.70;5.33;;;;;;;3.67;100.00;-19262.97;5077148;28;20274;-70
2021/10/25 01:37:45;;;;;;;10.43;6.23;;;;;;;3.65;100.00;-19262.56;5084214;28;20792;-70
2021/10/25 01:40:11;;;;;;;12.47;4.73;;;;;;;3.50;100.00;-19258.72;5079791;28;20116;-70
2021/10/25 01:42:38;;;;;;;9.93;5.07;;;;;;;3.40;100.00;-19256.09;5079663;28;20063;-70
2021/10/25 01:45:05;;;;;;;10.03;5.30;;;;;;;3.26;100.00;-19252.38;5079789;28;20305;-70
2021/10/25 01:47:31;;;;;;;13.27;5.20;;;;;;;3.27;100.00;-19252.63;5076181;28;20271;-70
2021/10/25 01:49:56;;;;;;;11.90;5.53;;;;;;;3.24;100.00;-19251.97;5078265;28;20292;-70
2021/10/25 01:52:23;;;;;;;12.13;5.47;;;;;;;3.21;100.00;-19251.03;5080307;28;20058;-70
2021/10/25 01:54:49;;;;;;;11.30;5.20;;;;;;;3.18;100.00;-19250.25;5080581;28;20034;-70
2021/10/25 01:57:14;;;;;;;11.00;5.53;;;;;;;3.38;100.00;-19255.41;5078728;28;20633;-70
2021/10/25 01:59:40;;;;;;;11.60;5.60;;;;;;;3.47;100.00;-19257.81;5076960;28;20126;-70
2021/10/25 02:02:06;;;;;;;10.77;5.23;;;;;;;3.39;100.00;-19255.81;5079969;28;20039;-70
2021/10/25 02:04:31;;;;;;;9.40;5.13;;;;;;;3.38;100.00;-19255.53;5079337;28;20613;-70
2021/10/25 02:06:57;;;;;;;10.90;5.43;;;;;;;3.53;100.00;-19259.53;5075242;28;20035;-70
2021/10/25 02:09:23;;;;;;;13.03;5.50;;;;;;;3.40;100.00;-19256.09;5079363;28;20086;-70
2021/10/25 02:11:49;;;;;;;10.73;5.70;;;;;;;3.51;100.00;-19259.00;5080042;28;20538;-70
2021/10/25 02:14:16;;;;;;;10.33;5.83;;;;;;;3.47;100.00;-19257.94;5086133;28;20265;-70
2021/10/25 02:16:42;;;;;;;13.70;5.43;;;;;;;3.37;100.00;-19255.16;5079943;28;20274;-70
2021/10/25 02:19:07;;;;;;;10.07;5.73;;;;;;;3.63;100.00;-19261.91;5079699;28;20254;-70
2021/10/25 02:21:33;;;;;;;11.57;5.13;;;;;;;3.69;100.00;-19263.50;5076754;28;20107;-70
2021/10/25 02:23:58;;;;;;;11.53;5.27;;;;;;;3.64;100.00;-19262.19;5079694;28;20053;-70
2021/10/25 02:26:24;;;;;;;14.60;5.07;;;;;;;3.68;100.00;-19263.25;5076347;28;20379;-70
2021/10/25 02:28:50;;;;;;;10.10;4.93;;;;;;;3.63;100.00;-19261.91;5079877;28;20612;-70
2021/10/25 02:31:16;;;;;;;11.30;5.53;;;;;;;3.43;100.00;-19256.75;5077157;28;20134;-70
2021/10/25 02:33:42;;;;;;;13.43;5.37;;;;;;;3.38;100.00;-19255.53;5075650;28;20278;-70
2021/10/25 02:36:09;;;;;;;11.63;5.53;;;;;;;3.27;100.00;-19252.63;5084461;28;20284;-70
2021/10/25 02:38:35;;;;;;;13.13;5.37;;;;;;;3.06;100.00;-19247.06;5085204;28;20028;-70
2021/10/25 02:41:01;;;;;;;11.83;5.37;;;;;;;2.91;100.00;-19243.22;5076729;28;20800;-70
2021/10/25 02:43:26;;;;;;;10.10;5.27;;;;;;;2.86;100.00;-19242.00;5074667;28;20530;-70
2021/10/25 02:45:52;;;;;;;12.57;5.87;;;;;;;2.80;100.00;-19240.28;5073464;28;20507;-70
2021/10/25 02:48:17;;;;;;;14.37;5.97;;;;;;;2.82;100.00;-19240.97;5079379;28;20036;-68
2021/10/25 02:50:45;;;;;;;13.93;6.20;;;;;;;2.84;100.00;-19241.50;5082546;28;20564;-68
2021/10/25 02:53:11;;;;;;;12.10;6.00;;;;;;;2.91;100.00;-19243.34;5079298;28;20282;-68
2021/10/25 02:55:37;;;;;;;12.20;5.83;;;;;;;3.03;100.00;-19246.25;5079907;28;20282;-69
2021/10/25 02:58:03;;;;;;;13.93;7.43;;;;;;;3.08;100.00;-19247.72;5078669;28;20331;-71
2021/10/25 03:00:29;;;;;;;13.33;6.40;;;;;;;3.15;100.00;-19249.44;5073878;28;20587;-70
2021/10/25 03:02:55;;;;;;;14.93;7.17;;;;;;;3.18;100.00;-19250.25;5074412;28;20266;-70
2021/10/25 03:05:22;;;;;;;16.57;6.63;;;;;;;3.15;100.00;-19249.44;5082357;28;20059;-70
2021/10/25 03:07:48;;;;;;;16.97;7.03;;;;;;;3.21;100.00;-19251.03;5078790;28;20746;-70
2021/10/25 03:10:13;;;;;;;19.00;6.63;;;;;;;3.21;100.00;-19251.16;5079122;28;20446;-70
2021/10/25 03:12:39;;;;;;;14.50;6.37;;;;;;;3.21;100.00;-19251.03;5076961;28;20024;-70
2021/10/25 03:15:06;;;;;;;12.43;5.73;;;;;;;3.11;100.00;-19248.50;5077093;28;20039;-70
2021/10/25 03:17:32;;;;;;;13.30;6.33;;;;;;;3.11;100.00;-19248.50;5088825;28;20447;-70
2021/10/25 03:19:58;;;;;;;16.80;7.50;;;;;;;3.17;100.00;-19249.97;5077665;28;20734;-70
2021/10/25 03:22:24;;;;;;;14.93;6.70;;;;;;;3.16;100.00;-19249.72;5078107;28;20365;-70
2021/10/25 03:24:50;;;;;;;17.80;6.67;;;;;;;3.08;100.00;-19247.59;5077963;28;20028;-70
2021/10/25 03:27:16;;;;;;;13.33;7.20;;;;;;;3.01;100.00;-19245.72;5077890;28;20901;-70
2021/10/25 03:29:41;;;;;;;12.90;5.80;;;;;;;2.97;100.00;-19244.66;5077114;28;20541;-71
2021/10/25 03:32:07;;;;;;;17.30;7.13;;;;;;;2.87;100.00;-19242.28;5074435;28;20457;-72
2021/10/25 03:34:33;;;;;;;13.80;6.10;;;;;;;2.93;100.00;-19243.88;5079881;28;20036;-72
2021/10/25 03:36:59;;;;;;;15.07;6.77;;;;;;;2.83;100.00;-19241.09;5077450;28;20055;-72
2021/10/25 03:39:27;;;;;;;16.90;7.83;;;;;;;2.76;100.00;-19239.38;5077022;28;20115;-72
2021/10/25 03:41:54;;;;;;;15.00;6.70;;;;;;;2.72;100.00;-19238.31;5077985;28;20308;-72
2021/10/25 03:44:25;;;;;;;13.60;6.67;;;;;;;2.71;100.00;-19237.91;5079520;28;20342;-72
2021/10/25 03:47:12;;;;;;;17.27;7.30;;;;;;;2.71;100.00;-19237.91;5077870;28;20458;-71
2021/10/25 03:49:53;;;;;;;12.10;6.60;;;;;;;2.79;100.00;-19240.16;5073578;28;20305;-72
2021/10/25 03:52:28;;;;;;;15.23;7.70;;;;;;;2.69;100.00;-19237.38;5078009;28;20335;-71
2021/10/25 03:55:05;;;;;;;17.03;7.37;;;;;;;2.67;100.00;-19236.97;5077238;28;20281;-72
2021/10/25 03:57:50;;;;;;;14.40;7.43;;;;;;;2.65;100.00;-19236.44;5077407;28;20404;-72
2021/10/25 04:03:47;;;;;;;22.60;8.43;;;;;;;2.47;100.00;-19231.81;4984665;28;20820;-72
2021/10/25 04:28:27;;;;;;;25.13;10.03;;;;;;;2.45;100.00;-19231.28;4931635;29;20271;-70
2021/10/25 04:30:57;;;;;;;22.47;9.57;;;;;;;2.40;100.00;-19229.81;4945055;28;20298;-70
2021/10/25 04:33:24;;;;;;;25.50;10.37;;;;;;;2.43;100.00;-19230.59;4942644;28;20927;-70
2021/10/25 04:35:49;;;;;;;24.60;9.70;;;;;;;2.52;100.00;-19233.00;4989960;28;20293;-70
2021/10/25 04:38:18;;;;;;;33.93;10.33;;;;;;;2.51;100.00;-19232.72;4992282;28;20701;-70
2021/10/25 04:40:44;;;;;;;22.50;10.50;;;;;;;2.43;100.00;-19230.75;4988379;28;20082;-70
2021/10/25 04:43:12;;;;;;;24.03;10.53;;;;;;;2.47;100.00;-19231.81;4988005;28;20372;-70
2021/10/25 04:45:38;;;;;;;23.67;9.67;;;;;;;2.51;100.00;-19232.84;4994918;28;20241;-70
2021/10/25 04:48:04;;;;;;;22.80;10.87;;;;;;;2.57;100.00;-19234.44;4995387;28;20838;-70
2021/10/25 04:50:29;;;;;;;30.03;11.67;;;;;;;2.55;100.00;-19233.94;4983847;28;20070;-70
2021/10/25 04:52:55;;;;;;;27.10;11.37;;;;;;;2.49;100.00;-19232.31;4994778;28;20886;-70
2021/10/25 04:55:20;;;;;;;25.60;11.30;;;;;;;2.53;100.00;-19233.25;4993689;28;20083;-70
2021/10/25 04:57:46;;;;;;;21.27;10.00;;;;;;;2.46;100.00;-19231.41;4994443;28;20034;-70
2021/10/25 05:00:12;;;;;;;27.97;11.17;;;;;;;2.52;100.00;-19233.00;4993309;28;20037;-70
2021/10/25 05:02:38;;;;;;;26.73;10.43;;;;;;;2.44;100.00;-19231.00;5038094;28;20040;-70
2021/10/25 05:05:05;;;;;;;24.80;11.00;;;;;;;2.47;100.00;-19231.66;5077167;28;20443;-70
2021/10/25 05:07:31;;;;;;;33.43;11.80;;;;;;;2.40;100.00;-19229.81;5077354;28;20353;-70
2021/10/25 05:09:57;;;;;;;28.97;11.37;;;;;;;2.43;100.00;-19230.59;5079723;28;20593;-70
2021/10/25 05:12:23;;;;;;;30.97;10.90;;;;;;;2.28;100.00;-19226.88;5081893;28;20622;-70
2021/10/25 05:14:50;;;;;;;30.90;11.97;;;;;;;2.38;100.00;-19229.41;5080896;28;20059;-70
2021/10/25 05:17:16;;;;;;;31.63;11.70;;;;;;;2.45;100.00;-19231.13;5080515;28;20553;-70
2021/10/25 05:19:42;;;;;;;33.20;11.83;;;;;;;2.59;100.00;-19234.84;5081342;28;20301;-70
2021/10/25 05:22:08;;;;;;;33.83;12.90;;;;;;;2.62;100.00;-19235.78;5081851;28;20185;-70
2021/10/25 05:24:34;;;;;;;34.37;12.30;;;;;;;2.57;100.00;-19234.31;5081202;28;20524;-70
2021/10/25 05:26:59;;;;;;;38.23;12.80;;;;;;;2.51;100.00;-19232.72;5081324;28;20024;-70
2021/10/25 05:29:25;;;;;;;43.10;14.30;;;;;;;2.50;100.00;-19232.47;5080431;28;20343;-70
2021/10/25 05:31:50;;;;;;;40.77;13.10;;;;;;;2.38;100.00;-19229.28;5081378;28;20587;-70
2021/10/25 05:34:16;;;;;;;41.17;13.40;;;;;;;2.49;100.00;-19232.19;5076541;28;20039;-70
2021/10/25 05:36:41;;;;;;;37.40;13.00;;;;;;;2.57;100.00;-19234.31;5076056;28;20031;-69
2021/10/25 05:39:09;;;;;;;37.87;13.13;;;;;;;2.65;100.00;-19236.44;5077307;28;20450;-70
2021/10/25 05:41:39;;;;;;;38.70;14.23;;;;;;;2.72;100.00;-19238.16;5075473;28;20111;-70
2021/10/25 05:44:05;;;;;;;37.23;14.27;;;;;;;2.70;100.00;-19237.78;5076240;28;20422;-70
2021/10/25 05:46:30;;;;;;;35.70;14.57;;;;;;;2.70;100.00;-19237.78;5079731;28;20277;-70
2021/10/25 05:48:57;;;;;;;41.50;14.03;;;;;;;2.52;100.00;-19233.13;5070735;28;20994;-70
2021/10/25 05:51:24;;;;;;;31.77;13.27;;;;;;;2.48;100.00;-19232.06;5074624;28;20231;-72
2021/10/25 05:53:49;;;;;;;36.90;13.93;;;;;;;2.35;100.00;-19228.75;5080095;28;20274;-70
2021/10/25 05:56:18;;;;;;;33.80;12.87;;;;;;;2.31;100.00;-19227.69;5081410;28;20281;-70
2021/10/25 05:58:44;;;;;;;34.40;13.13;;;;;;;2.46;100.00;-19231.41;5080869;28;20028;-71
2021/10/25 06:01:16;;;;;;;37.13;13.67;;;;;;;2.46;100.00;-19231.41;5080458;28;20795;-71
2021/10/25 06:03:45;;;;;;;;;;;;;;;2.38;100.00;-19229.41;5080952;28;20055;-71
2021/10/25 06:06:11;;;;;;;38.53;14.53;;;;;;;2.34;100.00;-19228.47;5080819;28;20368;-71
2021/10/25 06:08:39;;;;;;;35.57;13.47;;;;;;;2.37;100.00;-19229.00;5080538;28;20478;-71
2021/10/25 06:11:04;;;;;;;39.40;13.60;;;;;;;2.34;100.00;-19228.34;5080464;28;20111;-71
2021/10/25 06:13:35;;;;;;;40.97;14.63;;;;;;;2.34;100.00;-19228.47;5079622;28;20519;-71
2021/10/25 06:16:10;;;;;;;37.17;13.73;;;;;;;2.30;100.00;-19227.41;5065815;28;20032;-71
2021/10/25 06:18:36;;;;;;;38.07;14.40;;;;;;;2.32;100.00;-19227.94;5080250;28;20285;-71
2021/10/25 06:21:02;;;;;;;42.80;14.33;;;;;;;2.28;100.00;-19226.88;5079751;28;20730;-71
2021/10/25 06:23:28;;;;;;;41.40;12.93;;;;;;;2.40;100.00;-19229.94;5080397;28;20407;-72
2021/10/25 06:25:53;;;;;;;38.40;13.77;;;;;;;2.35;100.00;-19228.75;5079451;28;20028;-71
2021/10/25 06:28:22;;;;;;;35.63;13.27;;;;;;;2.37;100.00;-19229.00;5080086;28;20180;-70
2021/10/25 06:30:54;;;;;;;41.97;13.67;;;;;;;2.30;100.00;-19227.41;5079833;28;20108;-70
2021/10/25 06:33:22;;;;;;;43.40;14.10;;;;;;;2.31;100.00;-19227.69;5080176;28;20339;-70
2021/10/25 06:35:56;;;;;;;34.23;13.70;;;;;;;2.28;100.00;-19226.88;5079842;28;20389;-70
2021/10/25 06:38:25;;;;;;;40.90;14.17;;;;;;;2.27;100.00;-19226.63;5079257;28;20486;-70
2021/10/25 06:40:50;;;;;;;40.73;13.53;;;;;;;2.34;100.00;-19228.47;5076400;28;20251;-70
2021/10/25 06:43:15;;;;;;;40.93;14.23;;;;;;;2.40;100.00;-19229.81;5077287;28;20270;-70
2021/10/25 06:45:41;;;;;;;34.00;13.67;;;;;;;2.49;100.00;-19232.19;5079758;28;20499;-70
2021/10/25 06:48:06;;;;;;;40.97;13.83;;;;;;;2.58;100.00;-19234.59;5079968;28;20028;-72
2021/10/25 06:50:38;;;;;;;36.60;13.10;;;;;;;2.51;100.00;-19232.72;5078875;28;20284;-72
2021/10/25 06:53:06;;;;;;;40.88;14.02;;;;;;;2.47;100.00;-19231.66;5079299;28;20057;-72
2021/10/25 06:55:33;;;;;;;33.60;11.90;;;;;;;2.42;100.00;-19230.34;5079585;28;20589;-72
2021/10/25 06:57:59;;;;;;;37.47;13.13;;;;;;;2.50;100.00;-19232.47;5079727;28;20520;-72
2021/10/25 07:00:24;;;;;;;33.47;12.40;;;;;;;2.61;100.00;-19235.38;5079360;28;20345;-72
2021/10/25 07:02:51;;;;;;;30.27;11.73;;;;;;;2.86;100.00;-19241.88;5078951;28;20035;-72
2021/10/25 07:05:17;;;;;;;33.23;11.50;;;;;;;3.22;100.00;-19251.44;5079124;28;20436;-72
2021/10/25 07:07:43;;;;;;;29.50;11.77;;;;;;;3.48;100.00;-19258.19;5079310;28;20257;-72
2021/10/25 07:10:10;;;;;;;31.07;13.53;;;;;;;3.74;100.00;-19264.81;5078967;28;20428;-70
2021/10/25 07:12:35;;;;;;;24.70;11.27;;;;;;;3.93;100.00;-19269.88;5075572;28;20051;-71
2021/10/25 07:15:03;;;;;;;22.37;10.17;;;;;;;4.15;100.00;-19275.44;5079317;28;20262;-71
2021/10/25 07:26:58;;;;;;;13.93;7.50;;;;;;;4.87;100.00;-19294.25;4930995;28;20664;-70
2021/10/25 08:02:04;;;;;;;11.70;5.17;;;;;;;6.14;100.00;-19327.31;5078468;28;20050;-71
2021/10/25 08:07:36;;;;;;;12.83;4.97;;;;;;;6.43;100.00;-19334.88;4975922;28;20038;-71
2021/10/25 08:10:10;;;;;;;10.03;5.47;;;;;;;6.63;100.00;-19340.16;4975876;28;20125;-71
2021/10/25 08:12:39;;;;;;;11.80;4.67;;;;;;;6.81;100.00;-19344.78;4975999;28;20628;-71
2021/10/25 08:15:08;;;;;;;12.77;5.47;;;;;;;7.25;100.00;-19356.13;4975535;28;20195;-71
2021/10/25 08:17:55;;;;;;;9.83;5.10;;;;;;;8.57;100.00;-19390.31;4976031;28;20304;-71
2021/10/25 08:20:21;;;;;;;7.63;3.83;;;;;;;9.29;100.00;-19409.19;4975727;28;20022;-71
2021/10/25 08:22:47;;;;;;;10.07;3.90;;;;;;;8.87;100.00;-19398.25;4975958;28;20535;-71
2021/10/25 08:25:12;;;;;;;8.17;4.00;;;;;;;8.41;100.00;-19386.22;4975320;28;20039;-71
2021/10/25 08:27:39;;;;;;;8.63;3.63;;;;;;;8.35;100.00;-19384.66;4976026;28;20026;-71
2021/10/25 08:30:06;;;;;;;8.13;4.33;;;;;;;8.28;100.00;-19382.81;4975567;28;20035;-71
2021/10/25 08:35:27;;;;;;;9.50;4.70;;;;;;;7.49;100.00;-19362.47;4975963;28;20038;-71
2021/10/25 08:40:40;;;;;;;9.43;4.70;;;;;;;7.60;100.00;-19365.38;4975998;28;20037;-71
2021/10/25 08:43:08;;;;;;;10.13;4.47;;;;;;;7.63;100.00;-19366.03;4979652;28;20052;-71
2021/10/25 08:45:34;;;;;;;11.27;4.90;;;;;;;7.72;100.00;-19368.28;5080901;28;20051;-71
2021/10/25 08:48:04;;;;;;;11.00;5.27;;;;;;;7.72;100.00;-19368.28;5082469;28;20031;-71
2021/10/25 08:50:34;;;;;;;9.73;4.73;;;;;;;7.80;100.00;-19370.53;5081981;28;20035;-70
2021/10/25 08:53:05;;;;;;;14.00;4.63;;;;;;;7.91;100.00;-19373.31;5070852;28;20241;-72
2021/10/25 08:55:31;;;;;;;9.93;4.80;;;;;;;7.97;100.00;-19374.88;5076054;28;20028;-72
2021/10/25 08:57:56;;;;;;;9.77;5.13;;;;;;;8.02;100.00;-19376.19;5081997;28;20157;-71
2021/10/25 09:00:42;;;;;;;10.53;5.37;;;;;;;8.07;100.00;-19377.38;5081986;28;20063;-71
2021/10/25 09:03:08;;;;;;;11.23;5.40;;;;;;;8.21;100.00;-19381.09;5081423;28;20274;-71
2021/10/25 09:05:35;;;;;;;9.87;4.77;;;;;;;8.37;100.00;-19385.31;5081762;28;20032;-71
2021/10/25 09:08:06;;;;;;;9.73;4.70;;;;;;;8.51;100.00;-19388.88;5081959;28;20135;-72
2021/10/25 09:10:40;;;;;;;11.17;4.70;;;;;;;8.58;100.00;-19390.72;5081635;28;20032;-72
2021/10/25 09:13:18;;;;;;;10.03;4.80;;;;;;;8.52;100.00;-19389.13;5081618;28;20028;-70
2021/10/25 09:16:05;;;;;;;9.57;4.80;;;;;;;8.60;100.00;-19391.25;5081663;28;20591;-69
2021/10/25 09:18:32;;;;;;;9.27;4.40;;;;;;;8.78;100.00;-19396.00;5080527;28;20527;-70
2021/10/25 09:21:07;;;;;;;9.50;4.50;;;;;;;8.83;100.00;-19397.19;5080953;28;20024;-70
2021/10/25 09:23:38;;;;;;;8.63;4.90;;;;;;;9.11;100.00;-19404.44;5081546;28;20134;-71
2021/10/25 09:26:08;;;;;;;11.40;5.53;;;;;;;9.17;100.00;-19406.00;5081384;28;20036;-71
2021/10/25 09:28:37;;;;;;;10.13;4.90;;;;;;;9.13;100.00;-19404.97;5081095;28;20016;-71
2021/10/25 09:31:09;;;;;;;11.07;4.93;;;;;;;8.97;100.00;-19400.88;5081135;28;20026;-71
2021/10/25 09:33:36;;;;;;;10.60;4.97;;;;;;;9.11;100.00;-19404.44;5075774;28;20035;-70
2021/10/25 09:36:05;;;;;;;10.13;4.40;;;;;;;9.38;100.00;-19411.41;5081049;28;20384;-70
2021/10/25 09:49:55;;;;;;;8.13;4.32;;;;;;;10.07;100.00;-19429.19;5081209;28;20034;-72
2021/10/25 09:52:29;;;;;;;11.37;4.67;;;;;;;10.16;100.00;-19431.56;5080353;28;20491;-70
2021/10/25 09:55:04;;;;;;;10.40;4.50;;;;;;;10.07;100.00;-19429.19;5080366;28;20521;-70
2021/10/25 10:00:26;;;;;;;9.50;4.73;;;;;;;10.19;100.00;-19432.50;4997536;28;20033;-70
2021/10/25 10:02:51;;;;;;;8.63;4.70;;;;;;;10.19;100.00;-19432.34;4996927;28;20029;-70
2021/10/25 10:05:18;;;;;;;10.17;4.27;;;;;;;10.35;100.00;-19436.44;4996893;28;20062;-70
2021/10/25 10:07:45;;;;;;;8.23;4.23;;;;;;;10.47;100.00;-19439.59;4997862;28;20568;-70
2021/10/25 10:10:13;;;;;;;8.97;4.17;;;;;;;10.48;100.00;-19440.00;4997408;28;20113;-70
2021/10/25 10:12:42;;;;;;;9.47;4.40;;;;;;;10.69;100.00;-19445.25;4992321;28;20038;-70
2021/10/25 10:15:10;;;;;;;9.20;4.33;;;;;;;10.75;100.00;-19446.84;4992785;28;20575;-70
2021/10/25 10:17:42;;;;;;;7.53;3.90;;;;;;;10.85;100.00;-19449.47;4996420;28;20080;-70
2021/10/25 10:20:14;;;;;;;7.30;3.95;;;;;;;10.76;100.00;-19447.09;4994333;28;20517;-70
2021/10/25 10:22:48;;;;;;;7.85;4.03;;;;;;;10.93;100.00;-19451.56;4996104;28;20091;-70
2021/10/25 10:25:25;;;;;;;11.00;4.07;;;;;;;11.01;100.00;-19453.53;4995359;28;20624;-70
2021/10/25 10:28:03;;;;;;;9.03;3.80;;;;;;;11.08;100.00;-19455.53;4996823;28;20026;-70
2021/10/25 10:30:30;;;;;;;8.27;3.53;;;;;;;11.26;100.00;-19460.13;4994352;28;20276;-69
2021/10/25 10:33:02;;;;;;;8.63;3.70;;;;;;;11.35;100.00;-19462.34;4996087;28;20029;-69
2021/10/25 10:35:39;;;;;;;9.03;3.67;;;;;;;11.48;100.00;-19465.78;4996731;28;20066;-69
2021/10/25 10:38:05;;;;;;;9.03;3.70;;;;;;;11.25;100.00;-19459.84;5077034;28;20027;-69
2021/10/25 10:40:43;;;;;;;10.03;4.97;;;;;;;11.17;100.00;-19457.75;5078274;28;20538;-69
2021/10/25 10:43:22;;;;;;;7.80;3.80;;;;;;;11.23;100.00;-19459.19;5080665;28;20499;-69
2021/10/25 10:46:02;;;;;;;7.77;3.67;;;;;;;11.37;100.00;-19462.88;5079698;28;20384;-70
2021/10/25 10:48:31;;;;;;;8.63;4.03;;;;;;;11.50;100.00;-19466.16;5079743;28;20039;-70
2021/10/25 10:51:07;;;;;;;10.73;3.67;;;;;;;11.79;100.00;-19473.66;5078674;28;20038;-70
2021/10/25 10:53:38;;;;;;;8.40;3.63;;;;;;;12.09;100.00;-19481.53;5075170;28;20028;-70
2021/10/25 11:01:52;;;;;;;7.30;3.00;;;;;;;12.82;100.00;-19500.31;5078369;28;20485;-70
2021/10/25 11:04:28;;;;;;;10.57;3.43;;;;;;;12.95;100.00;-19503.72;5078055;28;20052;-70
2021/10/25 11:06:59;;;;;;;9.57;3.00;;;;;;;12.85;100.00;-19501.25;5073297;28;20431;-70
2021/10/25 11:09:28;;;;;;;7.43;3.30;;;;;;;12.72;100.00;-19497.69;5077817;28;20349;-70
2021/10/25 11:11:59;;;;;;;7.60;3.07;;;;;;;12.60;100.00;-19494.69;5076175;28;20161;-70
2021/10/25 11:14:28;;;;;;;7.20;3.45;;;;;;;12.43;100.00;-19490.22;5072433;28;20048;-70
2021/10/25 11:17:14;;;;;;;7.23;3.20;;;;;;;12.38;100.00;-19489.03;5066215;28;20032;-70
2021/10/25 11:19:46;;;;;;;5.30;3.00;;;;;;;12.33;100.00;-19487.72;5076897;28;20043;-70
2021/10/25 11:22:26;;;;;;;6.87;3.33;;;;;;;12.25;100.00;-19485.75;5071961;28;20034;-70
2021/10/25 11:24:55;;;;;;;8.40;3.40;;;;;;;12.18;100.00;-19483.91;5079062;28;20211;-70
2021/10/25 11:27:31;;;;;;;6.37;3.43;;;;;;;12.19;100.00;-19484.16;5078966;28;20579;-69
2021/10/25 11:30:10;;;;;;;6.93;3.20;;;;;;;12.24;100.00;-19485.50;5078722;28;20031;-70
2021/10/25 11:32:36;;;;;;;7.27;3.80;;;;;;;12.32;100.00;-19487.59;5079348;28;20031;-70
2021/10/25 11:35:06;;;;;;;8.60;3.57;;;;;;;12.38;100.00;-19488.91;5078321;28;20387;-70
2021/10/25 11:37:32;;;;;;;10.40;3.30;;;;;;;12.67;100.00;-19496.38;5076475;28;20035;-70
2021/10/25 11:40:05;;;;;;;5.77;2.93;;;;;;;12.54;100.00;-19493.22;5076833;28;20023;-70
2021/10/25 11:42:38;;;;;;;7.37;3.20;;;;;;;12.45;100.00;-19490.75;5079010;28;20027;-70
2021/10/25 11:45:15;;;;;;;6.43;3.37;;;;;;;12.60;100.00;-19494.69;5078012;28;20473;-70
2021/10/25 11:47:51;;;;;;;6.63;3.30;;;;;;;12.79;100.00;-19499.66;5078250;28;20173;-70
2021/10/25 11:50:28;;;;;;;7.57;3.10;;;;;;;12.80;100.00;-19499.94;5078571;28;20617;-70
2021/10/25 11:53:06;;;;;;;5.57;2.90;;;;;;;12.88;100.00;-19501.91;5079323;28;20521;-70
2021/10/25 11:55:41;;;;;;;5.60;3.03;;;;;;;12.79;100.00;-19499.53;5077724;28;20032;-70
2021/10/25 11:58:15;;;;;;;6.00;3.23;;;;;;;12.81;100.00;-19500.19;5078501;28;20101;-70
2021/10/25 12:00:47;;;;;;;11.73;4.13;;;;;;;12.83;100.00;-19500.72;5078368;28;20024;-70
2021/10/25 12:03:14;;;;;;;;;;;;;;;12.69;100.00;-19497.03;5078710;28;20149;-70
2021/10/25 12:05:40;;;;;;;9.03;3.07;;;;;;;12.64;100.00;-19495.72;5078276;28;19915;-70
2021/10/25 12:08:09;;;;;;;6.27;3.30;;;;;;;12.55;100.00;-19493.38;5078393;28;20046;-70
2021/10/25 12:10:37;;;;;;;7.53;3.30;;;;;;;12.49;100.00;-19491.91;5077910;28;20032;-70
2021/10/25 12:13:05;;;;;;;7.50;2.93;;;;;;;12.46;100.00;-19491.13;5078708;28;20042;-70
2021/10/25 12:15:34;;;;;;;7.13;3.03;;;;;;;12.38;100.00;-19488.91;5077699;28;20062;-70
2021/10/25 12:18:04;;;;;;;8.47;3.17;;;;;;;12.33;100.00;-19487.84;5078126;28;20034;-70
2021/10/25 12:20:32;;;;;;;6.77;2.90;;;;;;;12.31;100.00;-19487.31;5070403;28;20308;-70
2021/10/25 12:23:00;;;;;;;5.27;2.70;;;;;;;12.32;100.00;-19487.59;5078358;28;20108;-70
2021/10/25 12:25:26;;;;;;;5.33;2.80;;;;;;;12.27;100.00;-19486.28;5078290;28;20059;-70
2021/10/25 12:27:58;;;;;;;6.97;3.00;;;;;;;12.25;100.00;-19485.75;5078235;28;20028;-70
2021/10/25 12:30:23;;;;;;;7.85;2.88;;;;;;;12.21;100.00;-19484.56;5077202;28;20025;-70
2021/10/25 12:33:00;;;;;;;7.47;2.83;;;;;;;12.26;100.00;-19486.00;5078685;28;20047;-70
2021/10/25 12:35:38;;;;;;;5.60;2.80;;;;;;;12.36;100.00;-19488.38;5077455;28;20043;-70
2021/10/25 12:38:06;;;;;;;6.80;2.70;;;;;;;12.36;100.00;-19488.38;5071822;28;20025;-70
2021/10/25 12:41:04;;;;;;;8.10;3.57;;;;;;;12.48;100.00;-19491.53;5067647;28;20058;-70
2021/10/25 12:43:49;;;;;;;5.17;2.50;;;;;;;12.62;100.00;-19495.19;5077998;28;20028;-70
2021/10/25 12:46:17;;;;;;;4.47;2.53;;;;;;;12.85;100.00;-19501.25;5077977;28;20213;-70
2021/10/25 12:48:54;;;;;;;6.73;2.60;;;;;;;13.10;100.00;-19507.53;5078210;28;20028;-72
2021/10/25 12:51:22;;;;;;;5.67;2.40;;;;;;;13.31;100.00;-19513.06;5074936;28;20256;-72
2021/10/25 12:53:53;;;;;;;6.40;2.60;;;;;;;13.51;100.00;-19518.03;5078317;28;20023;-72
2021/10/25 12:56:29;;;;;;;5.33;2.83;;;;;;;13.60;100.00;-19520.53;5078127;28;20553;-72
2021/10/25 12:59:21;;;;;;;5.33;2.27;;;;;;;13.71;100.00;-19523.28;5078077;28;20027;-72